Main page
METAR-TAF:

METAR-TAF

Airports :

Aeroporto di Sarzana-Luni

Sarzana, Italy

latitude: 44-05N, longitude: 009-59E, elevation: 9 m

Current weather observation

The report was made 1 hour and 7 minutes ago, at 17:55 UTC
Calm wind
Temperature 16°C
Humidity 94%
Pressure 1015 hPa
Visibility 10 km or more
Scattered clouds at a height of 3000 ft

METAR: LIQW 241755Z 00000KT 9999 SCT030 16/15 Q1015 RMK SCT VIS MIN 9999 WIND THR18 31002KT BLU

Time: 21:02 (19:02 UTC)


TAF: missing

Weather observations and forecasts of more than 4000 airports (METAR and TAF reports).

The available stations are represented by yellow and red dots on the map.

Hover mouse over dot to see the name of the station.

Then click to see weather observations and forecasts.

To change the map : click on the green buttons with a black cross to zoom in, on the green button with a dash to zoom out, or on the green arrows for adjacent maps.


METAR-TAF: